Архив погоды в Анучино

Метеограмма Анучино
Среда, 24 Мая
Время местн. Темп Ветер Видим Явления Облачность нижн/средн/верх Атм. давл. Влжн Точка росы ВНГО R Сост. почвы Tg s
Напр Скр Прв ур.ст ур.м изм
16:00 +13° З,С-З 2 12 более 50 км небо без изменений {ливневые осадки} переменная облачность 739 756 +2.1 67% +7.1° 1 км - - - -
13:00 +17.9° З 3 - более 50 км - облачно с прояснениями 737 753 -0.8 54% +8.5° 1 км - - - -
10:00 +12.3° З 1 - более 50 км - преимущественно облачно 738 754 -1.4 84% +9.7° 1 км - - - -
07:00 +6.8° З 2 - более 50 км - переменная облачность 738 755 -1.4 95% +6° более 2.5 км 0 Влажная (без луж) +6° -
04:00 +5.8° Ю,Ю-З 1 - более 50 км - переменная облачность 740 757 -0.9 97% +5.4° 600 м - - - -
01:00 +5.7° З,Ю-З 1 - более 50 км - ясно 741 758 -0.2 97% +5.2° более 2.5 км - - - -
Вторник, 23 Мая
Время местн. Темп Ветер Видим Явления Облачность нижн/средн/верх Атм. давл. Влжн Точка росы ВНГО R Сост. почвы Tg s
Напр Скр Прв ур.ст ур.м изм
22:00 +8.2° З,Ю-З 2 - более 50 км - переменная облачность 741 758 +0.3 93% +7.1° более 2.5 км - - - -
19:00 +12.9° штиль 0 - более 50 км - облачно 741 757 +0.1 76% +8.7° 1 км 0.4 - - -
16:00 +12.3° З,С-З 2 - более 50 км - облачно 740 757 -0.3 72% +7.5° 1 км - - - -
13:00 +12.1° З,Ю-З 2 - более 50 км - облачно 741 757 -0.7 77% +8.1° 1 км - - - -
10:00 +10.3° штиль 0 - более 50 км небо без изменений {ливневые осадки} облачно 741 758 +0.3 88% +8.4° 600 м - - - -
07:00 +9.4° С-З 1 - более 50 км ливневый дождь облачно 741 758 -1.7 97% +8.9° 600 м 4 Влажная (без луж) +10° -
04:00 +9.5° штиль 0 - 10 км слабый ливневый дождь облачно 743 760 -1.1 97% +9° 300 м - - - -
01:00 +9.7° штиль 0 - 10 км слабый ливневый дождь облачно 744 761 -0.6 95% +8.9° 300 м - - - -
Понедельник, 22 Мая
Время местн. Темп Ветер Видим Явления Облачность нижн/средн/верх Атм. давл. Влжн Точка росы ВНГО R Сост. почвы Tg s
Напр Скр Прв ур.ст ур.м изм
22:00 +10.2° В 1 - более 50 км - облачно 745 762 -0.9 90% +8.7° 600 м - - - -
19:00 +10.2° С,С-В 2 - более 50 км - облачно 746 762 -1.1 87% +8.2° 600 м 0 - - -
16:00 +10° С-В 2 - более 50 км - облачно 747 764 -1.5 86% +7.7° 600 м - - - -
13:00 +9.3° С,С-В 2 - более 50 км - облачно 748 765 -0.7 85% +6.9° 1 км - - - -
10:00 +9.6° С-В 1 - более 50 км - облачно 749 766 +0.3 70% +4.5° более 2.5 км - - - -
07:00 +10.2° С-В 3 - более 50 км - облачно 749 766 +1.4 64% +3.6° 1 км 0 Влажная (без луж) +10° -
04:00 +10.8° В,С-В 1 - более 50 км - облачно 747 764 -0.1 86% +8.6° 1 км - - - -
01:00 +10.7° штиль 0 - более 50 км - облачно 747 764 +0.3 85% +8.2° 1 км - - - -
Воскресенье, 21 Мая
Время местн. Темп Ветер Видим Явления Облачность нижн/средн/верх Атм. давл. Влжн Точка росы ВНГО R Сост. почвы Tg s
Напр Скр Прв ур.ст ур.м изм
22:00 +10.2° штиль 0 - более 50 км - переменная облачность 747 764 +1 85% +7.8° более 2.5 км - - - -
19:00 +14.1° С-В 2 - более 50 км - облачно 746 762 +0.3 73% +9.3° 1 км 4 - - -
16:00 +16.7° С,С-В 2 - более 50 км - облачно 745 762 -0.7 67% +10.6° 1 км - - - -
13:00 +16.2° С-В 2 - более 50 км - облачно 746 763 -0.5 72% +11.2° 1 км - - - -